NOZ3747 ENCN-EKBI
Flight info
| Callsign | NOZ3747 |
|---|---|
| Flight time | 0h 37m |
| Altitude | 25000 |
| Route | RASVI DCT GELBA |
| Aircraft | B738/M-SDE2E3FGHIRWXY/LB1 |
Departure
| Time | 2026-04-27 13:47 |
|---|---|
| Airport | Kristiansand Airport (ENCN) |
Arrival
| Time | 2026-04-27 14:24 |
|---|---|
| Airport | Billund Airport (EKBI) |
| Time | Latitude | Longitude | Altitude | Speed | Heading |
|---|---|---|---|---|---|
| 2026-04-27 13:22 | 58.20277 | 8.07596 | 52 ft | 0 kts | 299° |
| 2026-04-27 13:43 | 58.20273 | 8.07608 | 49 ft | 2 kts | 299° |
| 2026-04-27 13:43 | 58.20265 | 8.07635 | 45 ft | 2 kts | 300° |
| 2026-04-27 13:43 | 58.20257 | 8.07662 | 50 ft | 2 kts | 300° |
| 2026-04-27 13:44 | 58.20256 | 8.07666 | 50 ft | 0 kts | 300° |
| 2026-04-27 13:44 | 58.20257 | 8.07657 | 49 ft | 3 kts | 285° |
| 2026-04-27 13:45 | 58.20231 | 8.07594 | 52 ft | 10 kts | 192° |
| 2026-04-27 13:45 | 58.20175 | 8.07578 | 52 ft | 14 kts | 203° |
| 2026-04-27 13:45 | 58.20028 | 8.07410 | 50 ft | 23 kts | 211° |
| 2026-04-27 13:45 | 58.19930 | 8.07362 | 49 ft | 8 kts | 165° |
| 2026-04-27 13:46 | 58.19894 | 8.07379 | 47 ft | 8 kts | 165° |
| 2026-04-27 13:46 | 58.19837 | 8.07412 | 50 ft | 9 kts | 162° |
| 2026-04-27 13:46 | 58.19751 | 8.07468 | 48 ft | 11 kts | 159° |
| 2026-04-27 13:46 | 58.19710 | 8.07536 | 50 ft | 13 kts | 115° |
| 2026-04-27 13:47 | 58.19757 | 8.07666 | 50 ft | 21 kts | 27° |
| 2026-04-27 13:47 | 58.20077 | 8.08078 | 50 ft | 103 kts | 35° |
| 2026-04-27 13:47 | 58.20904 | 8.09169 | 208 ft | 174 kts | 36° |
| 2026-04-27 13:47 | 58.21953 | 8.10547 | 1255 ft | 188 kts | 38° |
| 2026-04-27 13:48 | 58.22979 | 8.11912 | 2457 ft | 172 kts | 37° |
| 2026-04-27 13:48 | 58.23928 | 8.13181 | 3556 ft | 165 kts | 36° |
| 2026-04-27 13:48 | 58.24867 | 8.14432 | 4359 ft | 168 kts | 35° |
| 2026-04-27 13:48 | 58.25870 | 8.15769 | 4933 ft | 192 kts | 34° |
| 2026-04-27 13:49 | 58.27060 | 8.17354 | 5247 ft | 223 kts | 34° |
| 2026-04-27 13:49 | 58.28268 | 8.19071 | 5920 ft | 234 kts | 45° |
| 2026-04-27 13:49 | 58.29104 | 8.21727 | 6816 ft | 239 kts | 73° |
| 2026-04-27 13:49 | 58.29201 | 8.24884 | 7703 ft | 246 kts | 99° |
| 2026-04-27 13:50 | 58.28544 | 8.27939 | 8524 ft | 255 kts | 119° |
| 2026-04-27 13:50 | 58.27542 | 8.30777 | 9363 ft | 262 kts | 124° |
| 2026-04-27 13:50 | 58.26172 | 8.33109 | 10199 ft | 271 kts | 153° |
| 2026-04-27 13:50 | 58.24339 | 8.33907 | 10995 ft | 275 kts | 183° |
| 2026-04-27 13:51 | 58.22547 | 8.32867 | 11771 ft | 276 kts | 214° |
| 2026-04-27 13:51 | 58.20997 | 8.30632 | 12597 ft | 278 kts | 221° |
| 2026-04-27 13:51 | 58.19508 | 8.28311 | 13379 ft | 282 kts | 221° |
| 2026-04-27 13:51 | 58.17984 | 8.25920 | 14188 ft | 286 kts | 221° |
| 2026-04-27 13:52 | 58.16437 | 8.23511 | 14932 ft | 289 kts | 221° |
| 2026-04-27 13:52 | 58.14871 | 8.21094 | 15683 ft | 291 kts | 221° |
| 2026-04-27 13:52 | 58.13284 | 8.18661 | 16434 ft | 294 kts | 221° |
| 2026-04-27 13:52 | 58.11702 | 8.16248 | 17159 ft | 297 kts | 221° |
| 2026-04-27 13:53 | 58.08433 | 8.11277 | 18654 ft | 304 kts | 221° |
| 2026-04-27 13:53 | 58.06778 | 8.08770 | 19291 ft | 307 kts | 221° |
| 2026-04-27 13:53 | 58.05076 | 8.06277 | 19942 ft | 311 kts | 213° |
| 2026-04-27 13:54 | 58.03060 | 8.04782 | 20376 ft | 324 kts | 193° |
| 2026-04-27 13:54 | 58.00757 | 8.04100 | 20520 ft | 345 kts | 188° |
| 2026-04-27 13:54 | 57.98297 | 8.03552 | 20668 ft | 364 kts | 187° |
| 2026-04-27 13:54 | 57.95709 | 8.03010 | 20809 ft | 382 kts | 187° |
| 2026-04-27 13:55 | 57.93033 | 8.02434 | 20943 ft | 399 kts | 187° |
| 2026-04-27 13:55 | 57.90232 | 8.01808 | 21301 ft | 408 kts | 188° |
| 2026-04-27 13:55 | 57.87400 | 8.01156 | 21874 ft | 411 kts | 188° |
| 2026-04-27 13:55 | 57.84551 | 8.00486 | 22512 ft | 412 kts | 188° |
| 2026-04-27 13:56 | 57.81688 | 7.99806 | 23100 ft | 415 kts | 188° |
| 2026-04-27 13:56 | 57.78840 | 7.99126 | 23645 ft | 418 kts | 188° |
| 2026-04-27 13:56 | 57.75937 | 7.98434 | 24149 ft | 421 kts | 188° |
| 2026-04-27 13:56 | 57.73019 | 7.97740 | 24673 ft | 421 kts | 188° |
| 2026-04-27 13:57 | 57.70084 | 7.97042 | 24614 ft | 426 kts | 188° |
| 2026-04-27 13:57 | 57.67201 | 7.96360 | 24575 ft | 419 kts | 188° |
| 2026-04-27 13:57 | 57.64292 | 7.95672 | 24525 ft | 414 kts | 188° |
| 2026-04-27 13:57 | 57.61460 | 7.95014 | 24533 ft | 417 kts | 187° |
| 2026-04-27 13:58 | 57.58560 | 7.95167 | 24516 ft | 420 kts | 171° |
| 2026-04-27 13:58 | 57.55676 | 7.96160 | 24521 ft | 421 kts | 170° |
| 2026-04-27 13:58 | 57.52792 | 7.97177 | 24520 ft | 422 kts | 171° |
| 2026-04-27 13:58 | 57.49862 | 7.98183 | 24533 ft | 434 kts | 171° |
| 2026-04-27 13:59 | 57.46883 | 7.99174 | 24537 ft | 447 kts | 171° |
| 2026-04-27 13:59 | 57.43770 | 8.00186 | 24528 ft | 458 kts | 171° |
| 2026-04-27 13:59 | 57.40593 | 8.01205 | 24523 ft | 463 kts | 171° |
| 2026-04-27 13:59 | 57.37412 | 8.02219 | 24524 ft | 472 kts | 171° |
| 2026-04-27 14:00 | 57.34149 | 8.03259 | 24514 ft | 478 kts | 171° |
| 2026-04-27 14:00 | 57.30857 | 8.04307 | 24492 ft | 477 kts | 171° |
| 2026-04-27 14:00 | 57.27624 | 8.05402 | 24496 ft | 476 kts | 169° |
| 2026-04-27 14:00 | 57.24402 | 8.06820 | 24500 ft | 476 kts | 166° |
| 2026-04-27 14:01 | 57.21200 | 8.08425 | 24521 ft | 478 kts | 165° |
| 2026-04-27 14:01 | 57.17984 | 8.10109 | 24809 ft | 480 kts | 165° |
| 2026-04-27 14:01 | 57.14787 | 8.11784 | 25015 ft | 474 kts | 165° |
| 2026-04-27 14:01 | 57.11611 | 8.13418 | 24940 ft | 474 kts | 166° |
| 2026-04-27 14:02 | 57.08458 | 8.15008 | 24858 ft | 459 kts | 166° |
| 2026-04-27 14:02 | 57.05464 | 8.16494 | 24432 ft | 448 kts | 166° |
| 2026-04-27 14:02 | 57.02463 | 8.17966 | 23920 ft | 441 kts | 166° |
| 2026-04-27 14:02 | 56.99517 | 8.19402 | 23329 ft | 435 kts | 166° |
| 2026-04-27 14:03 | 56.96610 | 8.20814 | 22807 ft | 427 kts | 166° |
| 2026-04-27 14:03 | 56.93758 | 8.22196 | 22325 ft | 420 kts | 166° |
| 2026-04-27 14:03 | 56.90979 | 8.23543 | 21838 ft | 414 kts | 166° |
| 2026-04-27 14:03 | 56.88204 | 8.24886 | 21360 ft | 408 kts | 166° |
| 2026-04-27 14:04 | 56.85458 | 8.26215 | 20885 ft | 403 kts | 166° |
| 2026-04-27 14:04 | 56.82793 | 8.27502 | 20440 ft | 398 kts | 166° |
| 2026-04-27 14:04 | 56.80123 | 8.28790 | 19974 ft | 394 kts | 166° |
| 2026-04-27 14:04 | 56.77483 | 8.30063 | 19538 ft | 391 kts | 166° |
| 2026-04-27 14:05 | 56.74867 | 8.31321 | 19096 ft | 387 kts | 167° |
| 2026-04-27 14:05 | 56.72265 | 8.32571 | 18641 ft | 385 kts | 167° |
| 2026-04-27 14:05 | 56.69681 | 8.33811 | 18148 ft | 382 kts | 167° |
| 2026-04-27 14:05 | 56.67119 | 8.35038 | 17661 ft | 378 kts | 167° |
| 2026-04-27 14:06 | 56.64595 | 8.36246 | 17223 ft | 374 kts | 167° |
| 2026-04-27 14:06 | 56.62112 | 8.37432 | 16787 ft | 371 kts | 166° |
| 2026-04-27 14:06 | 56.59621 | 8.38620 | 16352 ft | 367 kts | 166° |
| 2026-04-27 14:06 | 56.57163 | 8.39791 | 15934 ft | 364 kts | 166° |
| 2026-04-27 14:07 | 56.54719 | 8.40954 | 15517 ft | 361 kts | 166° |
| 2026-04-27 14:07 | 56.52290 | 8.42108 | 15093 ft | 359 kts | 166° |
| 2026-04-27 14:07 | 56.49875 | 8.43254 | 14672 ft | 357 kts | 166° |
| 2026-04-27 14:07 | 56.47479 | 8.44389 | 14254 ft | 355 kts | 165° |
| 2026-04-27 14:08 | 56.45092 | 8.45519 | 13794 ft | 353 kts | 165° |
| 2026-04-27 14:08 | 56.42719 | 8.46642 | 13357 ft | 351 kts | 165° |
| 2026-04-27 14:08 | 56.40390 | 8.47742 | 12935 ft | 349 kts | 165° |
| 2026-04-27 14:08 | 56.38052 | 8.48845 | 12511 ft | 346 kts | 165° |
| 2026-04-27 14:09 | 56.35713 | 8.49945 | 12080 ft | 344 kts | 165° |
| 2026-04-27 14:09 | 56.33397 | 8.51034 | 11688 ft | 342 kts | 165° |
| 2026-04-27 14:09 | 56.31100 | 8.52113 | 11283 ft | 340 kts | 165° |
| 2026-04-27 14:09 | 56.28839 | 8.53175 | 10885 ft | 339 kts | 165° |
| 2026-04-27 14:10 | 56.26585 | 8.54232 | 10729 ft | 329 kts | 165° |
| 2026-04-27 14:10 | 56.24395 | 8.55258 | 10576 ft | 321 kts | 165° |
| 2026-04-27 14:10 | 56.22255 | 8.56257 | 10443 ft | 313 kts | 165° |
| 2026-04-27 14:10 | 56.20170 | 8.57232 | 10304 ft | 305 kts | 165° |
| 2026-04-27 14:11 | 56.18152 | 8.58173 | 10299 ft | 294 kts | 166° |
| 2026-04-27 14:11 | 56.16190 | 8.59086 | 10250 ft | 285 kts | 166° |
| 2026-04-27 14:11 | 56.14306 | 8.59962 | 10105 ft | 281 kts | 166° |
| 2026-04-27 14:11 | 56.12416 | 8.60842 | 9856 ft | 279 kts | 166° |
| 2026-04-27 14:12 | 56.10535 | 8.61717 | 9607 ft | 279 kts | 166° |
| 2026-04-27 14:12 | 56.08655 | 8.62588 | 9296 ft | 280 kts | 166° |
| 2026-04-27 14:12 | 56.06735 | 8.63477 | 8766 ft | 289 kts | 165° |
| 2026-04-27 14:12 | 56.04756 | 8.64394 | 8261 ft | 296 kts | 165° |
| 2026-04-27 14:13 | 56.02757 | 8.65320 | 8018 ft | 293 kts | 165° |
| 2026-04-27 14:13 | 56.00807 | 8.66223 | 7567 ft | 297 kts | 165° |
| 2026-04-27 14:13 | 55.98756 | 8.67170 | 6779 ft | 313 kts | 165° |
| 2026-04-27 14:13 | 55.96590 | 8.68168 | 6159 ft | 321 kts | 165° |
| 2026-04-27 14:14 | 55.94468 | 8.69145 | 6067 ft | 305 kts | 165° |
| 2026-04-27 14:14 | 55.92481 | 8.70058 | 5825 ft | 292 kts | 165° |
| 2026-04-27 14:14 | 55.90537 | 8.70952 | 5463 ft | 283 kts | 164° |
| 2026-04-27 14:14 | 55.88680 | 8.71805 | 5155 ft | 274 kts | 164° |
| 2026-04-27 14:15 | 55.86863 | 8.72639 | 4870 ft | 264 kts | 164° |
| 2026-04-27 14:15 | 55.85134 | 8.73431 | 4626 ft | 248 kts | 164° |
| 2026-04-27 14:15 | 55.83509 | 8.74174 | 4363 ft | 233 kts | 164° |
| 2026-04-27 14:15 | 55.81988 | 8.74869 | 4115 ft | 218 kts | 164° |
| 2026-04-27 14:16 | 55.80538 | 8.75112 | 3958 ft | 203 kts | 192° |
| 2026-04-27 14:16 | 55.79392 | 8.73926 | 3889 ft | 186 kts | 232° |
| 2026-04-27 14:16 | 55.78995 | 8.71893 | 3864 ft | 173 kts | 276° |
| 2026-04-27 14:16 | 55.79461 | 8.70055 | 3897 ft | 169 kts | 320° |
| 2026-04-27 14:17 | 55.80623 | 8.69213 | 3965 ft | 186 kts | 0° |
| 2026-04-27 14:17 | 55.81803 | 8.69877 | 3950 ft | 182 kts | 40° |
| 2026-04-27 14:17 | 55.82448 | 8.71757 | 3947 ft | 182 kts | 81° |
| 2026-04-27 14:17 | 55.82178 | 8.73906 | 3934 ft | 183 kts | 127° |
| 2026-04-27 14:18 | 55.81213 | 8.75299 | 3938 ft | 178 kts | 151° |
| 2026-04-27 14:18 | 55.80110 | 8.76200 | 3935 ft | 170 kts | 155° |
| 2026-04-27 14:18 | 55.79039 | 8.77017 | 3866 ft | 164 kts | 155° |
| 2026-04-27 14:18 | 55.77995 | 8.77810 | 3803 ft | 162 kts | 155° |
| 2026-04-27 14:19 | 55.76954 | 8.78603 | 3748 ft | 163 kts | 155° |
| 2026-04-27 14:19 | 55.75906 | 8.79404 | 3695 ft | 165 kts | 155° |
| 2026-04-27 14:19 | 55.74864 | 8.80203 | 3623 ft | 164 kts | 155° |
| 2026-04-27 14:19 | 55.73899 | 8.81228 | 3480 ft | 163 kts | 129° |
| 2026-04-27 14:20 | 55.73312 | 8.82898 | 3363 ft | 160 kts | 110° |
| 2026-04-27 14:20 | 55.73128 | 8.84821 | 3171 ft | 156 kts | 86° |
| 2026-04-27 14:20 | 55.73190 | 8.86774 | 3070 ft | 160 kts | 87° |
| 2026-04-27 14:20 | 55.73239 | 8.88697 | 2951 ft | 152 kts | 86° |
| 2026-04-27 14:21 | 55.73290 | 8.90528 | 2765 ft | 145 kts | 86° |
| 2026-04-27 14:21 | 55.73340 | 8.92279 | 2569 ft | 143 kts | 86° |
| 2026-04-27 14:21 | 55.73407 | 8.94076 | 2376 ft | 145 kts | 86° |
| 2026-04-27 14:21 | 55.73450 | 8.95853 | 2197 ft | 144 kts | 86° |
| 2026-04-27 14:22 | 55.73501 | 8.97606 | 2012 ft | 144 kts | 86° |
| 2026-04-27 14:22 | 55.73552 | 8.99375 | 1806 ft | 142 kts | 86° |
| 2026-04-27 14:22 | 55.73605 | 9.01129 | 1627 ft | 144 kts | 86° |
| 2026-04-27 14:22 | 55.73658 | 9.02903 | 1437 ft | 144 kts | 86° |
| 2026-04-27 14:23 | 55.73711 | 9.04662 | 1236 ft | 141 kts | 86° |
| 2026-04-27 14:23 | 55.73776 | 9.06366 | 1017 ft | 141 kts | 85° |
| 2026-04-27 14:23 | 55.73876 | 9.08118 | 828 ft | 143 kts | 86° |
| 2026-04-27 14:23 | 55.73899 | 9.09889 | 651 ft | 144 kts | 90° |
| 2026-04-27 14:24 | 55.73927 | 9.11640 | 466 ft | 139 kts | 88° |
| 2026-04-27 14:24 | 55.73977 | 9.13329 | 243 ft | 133 kts | 87° |
| 2026-04-27 14:24 | 55.74018 | 9.14667 | 233 ft | 80 kts | 86° |
| 2026-04-27 14:24 | 55.74036 | 9.15263 | 236 ft | 17 kts | 86° |
| 2026-04-27 14:25 | 55.74046 | 9.15536 | 235 ft | 36 kts | 86° |
| 2026-04-27 14:25 | 55.74062 | 9.16001 | 237 ft | 37 kts | 87° |
| 2026-04-27 14:25 | 55.74076 | 9.16425 | 243 ft | 33 kts | 86° |
| 2026-04-27 14:25 | 55.74088 | 9.16795 | 247 ft | 24 kts | 85° |
| 2026-04-27 14:26 | 55.74198 | 9.16909 | 246 ft | 20 kts | 356° |
| 2026-04-27 14:26 | 55.74253 | 9.16751 | 245 ft | 18 kts | 266° |
| 2026-04-27 14:26 | 55.74246 | 9.16536 | 243 ft | 17 kts | 267° |
| 2026-04-27 14:26 | 55.74241 | 9.16331 | 242 ft | 16 kts | 267° |
| 2026-04-27 14:27 | 55.74236 | 9.16132 | 241 ft | 16 kts | 267° |
| 2026-04-27 14:27 | 55.74228 | 9.15929 | 239 ft | 17 kts | 266° |
| 2026-04-27 14:27 | 55.74220 | 9.15711 | 238 ft | 18 kts | 266° |
| 2026-04-27 14:27 | 55.74212 | 9.15480 | 237 ft | 19 kts | 266° |
| 2026-04-27 14:28 | 55.74205 | 9.15242 | 235 ft | 20 kts | 267° |
| 2026-04-27 14:28 | 55.74216 | 9.15020 | 235 ft | 16 kts | 313° |
| 2026-04-27 14:28 | 55.74330 | 9.14984 | 233 ft | 19 kts | 359° |
| 2026-04-27 14:28 | 55.74453 | 9.15006 | 234 ft | 18 kts | 22° |
| 2026-04-27 14:29 | 55.74542 | 9.15015 | 237 ft | 7 kts | 356° |
| 2026-04-27 14:29 | 55.74545 | 9.15014 | 237 ft | 0 kts | 356° |
| 2026-04-27 14:29 | 55.74544 | 9.15014 | 237 ft | 0 kts | 356° |